KOWI

Ottawa Municipal Airport

Ottawa, Kansas, USA
METAR KOWI 180015Z AUTO 07003KT 7SM CLR 15/06 A3045 RMK AO2
Observed Flight Rules
Oct-18 @ 00:15 UTC (29 minutes ago) Visual Flight Rules
Wind Visibility Clouds
70° at 3 knots 7 miles
  • Clear skies
Temperatures Readings
Current 15°C / 59°F
Dewpoint 6°C / 43°F
Humidity 55%
Altimeter 30.45" Hg
Pressure 1031 hPa
Elevation 292
METAR KOWI 180015Z AUTO 07003KT 7SM CLR 15/06 A3045 RMK AO2
Observed Flight Rules
Oct-18 @ 00:15 UTC
(29 minutes ago)
VFR
Wind Visibility
70° at 3 knots 7 miles
Clouds
  • Clear skies
Temperature Dewpoint
15°C / 59°F 6°C / 43°F
Humidity Altimeter Pressure
55% 30.45" Hg 1031 hPa